Time;durP1;ratioP1;P1;durP2;ratioP2;P2;SDS_P1;SDS_P2;PMS_P1;PMS_P2;Temp;Humidity;BMP_temperature;BMP_pressure;BME280_temperature;BME280_humidity;BME280_pressure;Samples;Min_cycle;Max_cycle;Signal;HPM_P1;HPM_P2
2021/06/07 00:01:04;;;;;;;3.58;1.60;;;;;;;15.34;67.83;101305.13;5019259;28;20022;-77
2021/06/07 00:03:30;;;;;;;3.78;1.65;;;;;;;15.33;68.30;101309.09;5043017;28;20049;-76
2021/06/07 00:05:56;;;;;;;2.72;1.45;;;;;;;15.28;68.24;101311.13;5041972;28;20470;-77
2021/06/07 00:08:21;;;;;;;4.47;1.70;;;;;;;15.26;68.19;101303.03;5004552;28;20026;-76
2021/06/07 00:10:47;;;;;;;3.08;1.60;;;;;;;15.20;68.39;101304.28;5007807;28;21851;-76
2021/06/07 00:13:13;;;;;;;5.03;1.70;;;;;;;15.24;68.33;101301.69;5039565;28;20056;-76
2021/06/07 00:15:38;;;;;;;4.00;1.70;;;;;;;15.20;68.32;101304.28;5042441;28;20029;-76
2021/06/07 00:18:04;;;;;;;2.70;1.67;;;;;;;15.15;68.80;101302.38;5043970;28;20552;-76
2021/06/07 00:20:39;;;;;;;2.70;1.52;;;;;;;15.15;68.32;101307.16;5026685;28;20045;-76
2021/06/07 00:23:04;;;;;;;3.65;1.67;;;;;;;15.13;68.25;101303.84;5045264;28;20033;-76
2021/06/07 00:25:30;;;;;;;4.53;1.60;;;;;;;15.05;68.53;101301.75;5042302;28;20492;-76
2021/06/07 00:27:56;;;;;;;2.55;1.70;;;;;;;15.01;68.30;101290.31;5037017;28;20111;-76
2021/06/07 00:30:21;;;;;;;3.78;1.65;;;;;;;15.00;68.84;101294.25;5036852;28;20034;-76
2021/06/07 00:32:47;;;;;;;2.83;1.55;;;;;;;14.98;68.32;101293.72;5027771;28;20038;-76
2021/06/07 00:35:31;;;;;;;4.53;1.80;;;;;;;14.91;69.12;101294.13;5035365;28;20032;-76
2021/06/07 00:37:56;;;;;;;4.97;1.73;;;;;;;14.93;68.29;101296.59;5009630;28;20037;-76
2021/06/07 00:40:26;;;;;;;2.60;1.67;;;;;;;14.85;68.79;101289.75;5037599;28;20025;-76
2021/06/07 00:42:53;;;;;;;4.30;1.80;;;;;;;14.86;68.79;101293.38;5043945;28;20394;-76
2021/06/07 00:45:22;;;;;;;3.55;1.85;;;;;;;14.83;69.56;101289.22;5024343;28;20036;-77
2021/06/07 00:47:48;;;;;;;4.22;1.70;;;;;;;14.75;68.66;101292.69;5042121;28;20029;-76
2021/06/07 00:50:32;;;;;;;3.22;1.52;;;;;;;14.72;69.67;101285.75;5046327;28;20464;-76
2021/06/07 00:53:02;;;;;;;3.45;1.85;;;;;;;14.69;69.39;101286.34;5039549;28;20036;-77
2021/06/07 00:55:34;;;;;;;2.55;1.50;;;;;;;14.67;69.99;101296.19;5038573;28;20058;-76
2021/06/07 00:57:59;;;;;;;2.67;1.65;;;;;;;14.60;68.80;101290.97;5036303;28;20057;-77
2021/06/07 01:00:25;;;;;;;5.03;1.63;;;;;;;14.65;69.27;101292.84;5047835;28;20043;-76
2021/06/07 01:02:51;;;;;;;2.60;1.60;;;;;;;14.57;69.39;101290.72;5038320;28;20776;-77
2021/06/07 01:05:17;;;;;;;4.03;1.90;;;;;;;14.56;69.32;101294.66;5026658;28;20445;-77
2021/06/07 01:07:42;;;;;;;3.58;1.60;;;;;;;14.50;69.41;101286.31;5018931;28;20038;-77
2021/06/07 01:10:09;;;;;;;4.18;1.75;;;;;;;14.49;69.27;101281.88;5009554;28;20033;-77
2021/06/07 01:12:34;;;;;;;3.38;1.80;;;;;;;14.47;69.33;101286.94;5023358;28;20079;-77
2021/06/07 01:15:00;;;;;;;3.33;1.98;;;;;;;14.41;69.40;101282.53;5024245;28;20041;-77
2021/06/07 01:17:27;;;;;;;3.10;1.60;;;;;;;14.40;69.57;101286.47;5009253;28;20021;-77
2021/06/07 01:19:53;;;;;;;4.50;1.80;;;;;;;14.39;70.19;101279.22;5004595;28;20026;-77
2021/06/07 01:22:19;;;;;;;2.80;1.73;;;;;;;14.39;69.66;101275.59;5036370;28;20543;-77
2021/06/07 01:24:44;;;;;;;2.78;1.70;;;;;;;14.29;69.82;101282.13;5026060;28;20033;-77
2021/06/07 01:27:10;;;;;;;2.85;1.92;;;;;;;14.29;70.16;101280.19;5044868;28;20039;-77
2021/06/07 01:29:36;;;;;;;3.92;1.55;;;;;;;14.28;70.03;101272.94;5031919;28;20034;-76
2021/06/07 01:32:02;;;;;;;5.13;1.63;;;;;;;14.23;70.44;101269.38;5037342;28;20037;-77
2021/06/07 01:34:27;;;;;;;3.90;1.85;;;;;;;14.24;69.92;101269.09;5022310;28;20030;-76
2021/06/07 01:36:53;;;;;;;4.15;1.80;;;;;;;14.21;70.35;101268.88;5027188;28;20366;-77
2021/06/07 01:39:19;;;;;;;3.00;1.85;;;;;;;14.14;70.01;101260.84;5035492;28;20047;-77
2021/06/07 01:41:44;;;;;;;4.38;2.05;;;;;;;14.14;70.51;101265.59;5045810;28;20029;-77
2021/06/07 01:44:09;;;;;;;5.18;2.08;;;;;;;14.11;70.75;101258.66;5039910;28;20040;-76
2021/06/07 01:46:35;;;;;;;2.20;1.60;;;;;;;14.07;71.06;101254.81;5022701;28;20029;-77
2021/06/07 01:49:00;;;;;;;3.95;1.67;;;;;;;14.04;71.00;101252.59;5008465;28;20038;-77
2021/06/07 01:51:26;;;;;;;3.15;1.50;;;;;;;14.02;70.82;101247.31;5023328;28;20048;-77
2021/06/07 01:53:52;;;;;;;3.00;1.58;;;;;;;14.00;71.22;101249.56;5021347;28;20040;-77
2021/06/07 01:56:17;;;;;;;5.80;1.90;;;;;;;13.99;70.64;101242.34;5043633;28;20032;-77
2021/06/07 01:58:42;;;;;;;4.18;1.70;;;;;;;13.95;70.59;101244.03;5041232;28;20037;-76
2021/06/07 02:01:14;;;;;;;3.17;1.30;;;;;;;13.91;70.94;101247.75;5020762;28;20478;-77
2021/06/07 02:03:39;;;;;;;3.28;1.75;;;;;;;13.87;70.87;101239.13;5034628;28;20033;-76
2021/06/07 02:06:06;;;;;;;4.43;1.75;;;;;;;13.84;70.89;101239.72;5034665;28;20037;-77
2021/06/07 02:08:31;;;;;;;3.70;1.40;;;;;;;13.84;70.81;101240.53;5047260;28;20024;-77
2021/06/07 02:11:08;;;;;;;3.28;1.65;;;;;;;13.82;70.66;101240.03;5025241;28;20121;-76
2021/06/07 02:13:34;;;;;;;3.42;1.90;;;;;;;13.77;70.78;101242.06;5046945;28;20040;-76
2021/06/07 02:16:00;;;;;;;3.53;1.58;;;;;;;13.75;70.95;101242.34;5043712;28;20029;-77
2021/06/07 02:18:26;;;;;;;2.15;1.65;;;;;;;13.73;70.98;101235.41;5033503;28;20508;-76
2021/06/07 02:20:51;;;;;;;3.40;1.60;;;;;;;13.70;70.84;101233.19;5022028;28;20030;-76
2021/06/07 02:23:17;;;;;;;2.60;1.80;;;;;;;13.70;71.35;101238.78;5040263;28;20024;-77
2021/06/07 02:25:42;;;;;;;3.38;1.58;;;;;;;13.68;70.47;101232.66;5045036;28;20049;-76
2021/06/07 02:28:15;;;;;;;3.03;1.70;;;;;;;13.62;71.05;101238.31;5041634;28;20045;-76
2021/06/07 02:30:41;;;;;;;3.80;1.80;;;;;;;13.61;70.79;101228.28;5046788;28;20041;-76
2021/06/07 02:33:06;;;;;;;3.15;1.90;;;;;;;13.61;71.18;101235.81;5026497;28;20036;-77
2021/06/07 02:35:32;;;;;;;3.50;1.85;;;;;;;13.60;71.02;101235.00;5046514;28;20440;-77
2021/06/07 02:37:57;;;;;;;2.60;1.80;;;;;;;13.54;70.94;101236.19;5040455;28;20037;-73
2021/06/07 02:40:28;;;;;;;3.70;1.60;;;;;;;13.54;71.15;101232.53;5045848;28;20029;-72
2021/06/07 02:42:54;;;;;;;3.53;1.65;;;;;;;13.56;71.29;101233.09;5047804;28;20037;-77
2021/06/07 02:45:20;;;;;;;4.13;2.17;;;;;;;13.51;71.06;101239.56;5041787;28;20034;-77
2021/06/07 02:47:47;;;;;;;4.07;2.40;;;;;;;13.48;71.08;101245.72;5027733;28;20033;-77
2021/06/07 02:50:13;;;;;;;7.57;2.88;;;;;;;13.50;71.37;101240.69;5043522;28;20112;-77
2021/06/07 02:52:48;;;;;;;5.18;2.30;;;;;;;13.46;71.66;101245.19;5007186;28;20025;-77
2021/06/07 02:55:15;;;;;;;4.13;2.63;;;;;;;13.44;71.24;101247.44;5045486;28;20478;-77
2021/06/07 02:57:40;;;;;;;6.90;2.65;;;;;;;13.40;71.16;101243.59;5044376;28;20033;-77
2021/06/07 03:00:07;;;;;;;3.72;2.20;;;;;;;13.37;71.32;101242.22;5022243;28;20436;-77
2021/06/07 03:02:32;;;;;;;4.22;2.08;;;;;;;13.36;71.31;101242.50;5037630;28;20033;-77
2021/06/07 03:04:58;;;;;;;4.32;2.05;;;;;;;13.33;71.45;101237.53;5013168;28;20033;-77
2021/06/07 03:07:23;;;;;;;3.25;2.10;;;;;;;13.27;71.32;101241.50;5045984;28;20083;-77
2021/06/07 03:09:49;;;;;;;4.25;1.95;;;;;;;13.27;71.36;101244.28;5041967;28;20038;-77
2021/06/07 03:12:14;;;;;;;4.05;1.88;;;;;;;13.24;71.73;101233.69;5036045;28;20037;-77
2021/06/07 03:14:43;;;;;;;5.25;2.20;;;;;;;13.18;71.52;101242.09;5007714;28;20030;-77
2021/06/07 03:17:09;;;;;;;2.45;1.80;;;;;;;13.17;71.86;101243.22;5042778;28;20040;-77
2021/06/07 03:19:34;;;;;;;2.95;1.80;;;;;;;13.15;71.83;101242.69;5004647;28;20600;-77
2021/06/07 03:22:00;;;;;;;4.05;1.85;;;;;;;13.14;71.79;101237.41;5042248;28;20370;-77
2021/06/07 03:24:25;;;;;;;3.60;1.95;;;;;;;13.12;71.82;101243.28;5037915;28;20474;-77
2021/06/07 03:26:51;;;;;;;3.22;1.77;;;;;;;13.09;71.75;101234.66;5026491;28;20175;-77
2021/06/07 03:29:16;;;;;;;4.30;1.70;;;;;;;13.06;71.77;101238.84;5023305;28;20476;-77
2021/06/07 03:31:42;;;;;;;2.92;1.85;;;;;;;13.06;72.11;101247.22;5022894;28;20034;-77
2021/06/07 03:34:07;;;;;;;3.22;1.73;;;;;;;13.05;72.27;101247.53;5028053;28;20044;-77
2021/06/07 03:36:33;;;;;;;2.60;1.70;;;;;;;13.00;71.66;101248.41;5027252;28;20074;-77
2021/06/07 03:38:59;;;;;;;4.35;1.88;;;;;;;12.97;71.71;101249.00;5024346;28;20116;-77
2021/06/07 03:41:24;;;;;;;2.70;1.83;;;;;;;12.99;72.01;101248.72;5043327;28;20049;-77
2021/06/07 03:43:50;;;;;;;3.22;1.70;;;;;;;12.94;71.80;101250.41;5040121;28;20033;-77
2021/06/07 03:46:15;;;;;;;4.88;1.80;;;;;;;12.92;71.70;101255.44;5043116;28;20036;-77
2021/06/07 03:48:41;;;;;;;2.50;1.60;;;;;;;12.90;72.15;101254.91;5040231;28;20657;-77
2021/06/07 03:51:06;;;;;;;3.20;1.58;;;;;;;12.89;72.29;101246.81;5016231;28;20041;-77
2021/06/07 03:53:32;;;;;;;2.92;1.60;;;;;;;12.87;72.33;101241.56;5043181;28;20413;-77
2021/06/07 03:55:57;;;;;;;2.92;1.52;;;;;;;12.86;72.26;101241.84;5038022;28;20021;-77
2021/06/07 03:58:23;;;;;;;4.93;1.70;;;;;;;12.81;72.66;101245.47;5027662;28;20493;-77
2021/06/07 04:00:48;;;;;;;3.22;2.00;;;;;;;12.81;73.32;101244.66;5042899;28;20021;-77
2021/06/07 04:03:14;;;;;;;3.97;2.17;;;;;;;12.85;73.07;101243.78;5037218;28;20448;-77
2021/06/07 04:05:39;;;;;;;3.05;2.33;;;;;;;12.86;73.53;101241.84;5054103;28;20527;-77
2021/06/07 04:08:05;;;;;;;3.03;2.13;;;;;;;12.86;74.49;101241.84;5029440;28;20129;-77
2021/06/07 04:10:31;;;;;;;4.03;2.10;;;;;;;12.86;74.42;101236.25;5038182;28;20029;-77
2021/06/07 04:12:57;;;;;;;5.35;2.97;;;;;;;12.87;74.73;101232.34;5028398;28;20026;-77
2021/06/07 04:15:24;;;;;;;3.22;2.20;;;;;;;12.96;74.60;101236.19;5025189;28;20473;-77
2021/06/07 04:17:49;;;;;;;2.58;2.30;;;;;;;12.91;74.61;101234.25;5021995;28;20033;-77
2021/06/07 04:20:16;;;;;;;3.10;2.30;;;;;;;12.95;74.53;101234.50;5024920;28;20072;-77
2021/06/07 04:22:43;;;;;;;2.75;2.47;;;;;;;12.94;74.77;101239.25;5009299;28;20049;-77
2021/06/07 04:25:09;;;;;;;2.92;2.55;;;;;;;12.86;77.28;101230.69;5046993;28;20033;-77
2021/06/07 04:27:35;;;;;;;2.65;2.35;;;;;;;12.87;79.17;101227.63;5043302;28;20028;-77
2021/06/07 04:30:04;;;;;;;3.42;3.00;;;;;;;12.90;79.86;101240.97;5007078;28;20041;-77
2021/06/07 04:32:31;;;;;;;3.00;2.28;;;;;;;13.00;76.93;101236.41;5043591;28;20034;-77
2021/06/07 04:34:57;;;;;;;2.30;2.10;;;;;;;13.03;77.09;101236.66;5041841;28;20072;-77
2021/06/07 04:37:23;;;;;;;2.13;1.92;;;;;;;13.08;77.16;101236.63;5039457;28;20038;-77
2021/06/07 04:39:48;;;;;;;2.53;2.15;;;;;;;13.14;77.33;101238.22;5027162;28;20037;-77
2021/06/07 04:42:13;;;;;;;2.20;2.00;;;;;;;13.16;76.75;101240.72;5044711;28;20034;-77
2021/06/07 04:44:39;;;;;;;2.30;2.10;;;;;;;13.22;77.88;101247.09;5024840;28;20033;-77
2021/06/07 04:47:05;;;;;;;2.42;1.88;;;;;;;13.29;76.89;101245.66;5024872;28;20037;-78
2021/06/07 04:49:30;;;;;;;2.72;2.53;;;;;;;13.32;78.22;101245.06;5047840;28;20045;-77
2021/06/07 04:51:56;;;;;;;2.05;1.95;;;;;;;13.32;76.62;101244.25;5044065;28;20405;-77
2021/06/07 04:54:21;;;;;;;2.60;2.40;;;;;;;13.30;78.32;101247.31;5038713;28;20033;-78
2021/06/07 04:56:47;;;;;;;3.53;2.70;;;;;;;13.30;78.11;101246.50;5033227;28;20037;-77
2021/06/07 04:59:12;;;;;;;2.22;2.03;;;;;;;13.35;77.25;101254.81;5038982;28;20040;-77
2021/06/07 05:01:38;;;;;;;2.28;2.08;;;;;;;13.40;76.98;101251.97;5019894;28;20029;-77
2021/06/07 05:04:03;;;;;;;3.45;3.15;;;;;;;13.31;83.02;101248.13;5042116;28;20037;-77
2021/06/07 05:06:29;;;;;;;3.58;3.28;;;;;;;13.35;80.47;101257.59;5040575;28;20109;-77
2021/06/07 05:08:54;;;;;;;4.13;3.80;;;;;;;13.25;84.26;101254.88;5035527;28;20056;-78
2021/06/07 05:11:20;;;;;;;4.28;2.45;;;;;;;13.37;79.63;101258.13;5042603;28;20037;-77
2021/06/07 05:13:45;;;;;;;2.83;2.08;;;;;;;13.44;78.07;101258.63;5016674;28;20033;-77
2021/06/07 05:16:11;;;;;;;4.20;3.83;;;;;;;13.43;83.64;101262.53;5026544;28;20029;-78
2021/06/07 05:18:37;;;;;;;4.78;3.80;;;;;;;13.41;84.17;101259.19;5040112;28;20029;-78
2021/06/07 05:21:04;;;;;;;2.75;2.55;;;;;;;13.50;80.49;101267.75;5018856;28;20021;-77
2021/06/07 05:23:29;;;;;;;2.65;2.45;;;;;;;13.55;79.88;101260.16;5028124;28;20462;-77
2021/06/07 05:25:55;;;;;;;2.45;2.25;;;;;;;13.62;79.33;101259.78;5037902;28;20056;-77
2021/06/07 05:28:20;;;;;;;3.00;2.80;;;;;;;13.66;81.06;101272.06;5028006;28;20033;-77
2021/06/07 05:30:47;;;;;;;3.50;3.20;;;;;;;13.70;82.65;101256.34;5043890;28;20041;-77
2021/06/07 05:33:13;;;;;;;2.47;2.28;;;;;;;13.76;79.73;101266.34;5022093;28;20036;-77
2021/06/07 05:35:41;;;;;;;2.65;1.77;;;;;;;13.81;79.31;101269.06;5052098;28;20362;-78
2021/06/07 05:38:07;;;;;;;3.35;3.05;;;;;;;13.88;82.59;101268.72;5040780;28;20477;-77
2021/06/07 05:40:33;;;;;;;4.18;3.75;;;;;;;13.86;85.53;101265.38;5004875;28;20367;-77
2021/06/07 05:42:59;;;;;;;3.00;2.70;;;;;;;13.94;81.79;101267.53;5025984;28;20036;-78
2021/06/07 05:45:25;;;;;;;4.35;3.95;;;;;;;14.04;83.56;101264.63;5025034;28;20053;-77
2021/06/07 05:47:50;;;;;;;4.30;3.90;;;;;;;14.02;85.89;101272.44;5006684;28;20040;-77
2021/06/07 05:50:18;;;;;;;4.65;4.05;;;;;;;14.10;85.63;101276.56;5005353;28;20516;-78
2021/06/07 05:52:46;;;;;;;4.40;4.00;;;;;;;14.15;85.55;101275.63;5022743;28;20436;-78
2021/06/07 05:55:25;;;;;;;3.92;3.60;;;;;;;14.20;84.87;101279.19;5048795;28;20029;-77
2021/06/07 05:57:53;;;;;;;7.40;5.85;;;;;;;14.19;87.13;101282.31;5038128;28;20435;-78
2021/06/07 06:00:20;;;;;;;5.82;5.22;;;;;;;14.27;87.50;101284.44;5039697;28;20490;-78
2021/06/07 06:02:46;;;;;;;7.57;6.57;;;;;;;14.29;88.81;101279.34;4996253;28;20030;-78
2021/06/07 06:05:12;;;;;;;7.10;6.35;;;;;;;14.36;87.56;101284.59;5035622;28;20040;-77
2021/06/07 06:07:38;;;;;;;6.75;5.70;;;;;;;14.39;87.60;101281.19;5031994;28;20490;-78
2021/06/07 06:10:04;;;;;;;7.53;6.55;;;;;;;14.48;87.45;101294.16;5035319;28;20022;-77
2021/06/07 06:12:30;;;;;;;7.65;5.72;;;;;;;14.51;87.44;101288.00;5031920;28;20030;-78
2021/06/07 06:14:55;;;;;;;6.38;5.78;;;;;;;14.59;87.48;101294.06;5038813;28;20087;-77
2021/06/07 06:17:21;;;;;;;7.13;5.80;;;;;;;14.68;86.97;101289.44;5039681;28;20037;-77
2021/06/07 06:19:46;;;;;;;7.75;6.95;;;;;;;14.82;87.87;101284.78;5025125;28;20042;-77
2021/06/07 06:22:13;;;;;;;8.73;7.63;;;;;;;14.95;87.13;101289.56;5029300;28;20026;-77
2021/06/07 06:24:39;;;;;;;4.10;3.70;;;;;;;15.09;82.88;101286.00;5035035;28;20104;-77
2021/06/07 06:27:05;;;;;;;4.43;3.92;;;;;;;15.26;83.33;101291.03;5046914;28;20038;-76
2021/06/07 06:29:30;;;;;;;5.88;4.60;;;;;;;15.40;82.31;101287.09;5040316;28;20044;-76
2021/06/07 06:31:56;;;;;;;5.43;4.60;;;;;;;15.58;81.32;101295.78;5023127;28;20044;-76
2021/06/07 06:34:21;;;;;;;5.10;4.25;;;;;;;15.72;81.00;101293.84;5026004;28;20033;-76
2021/06/07 06:36:47;;;;;;;5.13;4.63;;;;;;;15.88;80.75;101294.38;5054863;28;20033;-73
2021/06/07 06:39:13;;;;;;;4.93;3.58;;;;;;;16.00;79.41;101294.69;5023909;28;20030;-72
2021/06/07 06:41:38;;;;;;;5.00;4.55;;;;;;;16.11;80.78;101289.69;5042365;28;20029;-77
2021/06/07 06:44:04;;;;;;;4.03;3.63;;;;;;;16.27;79.70;101293.84;5008743;28;20036;-77
2021/06/07 06:46:30;;;;;;;4.60;3.70;;;;;;;16.41;78.37;101293.81;5003268;28;20615;-78
2021/06/07 06:48:56;;;;;;;5.05;4.00;;;;;;;16.57;78.36;101293.44;5042099;28;20396;-77
2021/06/07 06:51:21;;;;;;;3.83;3.05;;;;;;;16.75;77.44;101286.88;5022684;28;20053;-78
2021/06/07 06:53:47;;;;;;;3.95;2.60;;;;;;;16.96;76.35;101287.22;4992613;28;20479;-77
2021/06/07 06:56:13;;;;;;;3.95;3.40;;;;;;;17.19;76.54;101286.06;5039901;28;20029;-77
2021/06/07 06:58:38;;;;;;;5.05;3.85;;;;;;;17.38;77.45;101291.47;5018639;28;20037;-77
2021/06/07 07:01:04;;;;;;;6.25;5.50;;;;;;;17.64;78.78;101285.19;5039683;28;20041;-77
2021/06/07 07:03:29;;;;;;;4.55;4.00;;;;;;;17.90;76.25;101293.72;5039085;28;20047;-77
2021/06/07 07:05:55;;;;;;;4.47;3.50;;;;;;;18.17;74.52;101287.06;5045667;28;20021;-78
2021/06/07 07:08:21;;;;;;;5.18;4.00;;;;;;;18.33;75.29;101293.06;5027932;28;20033;-77
2021/06/07 07:10:47;;;;;;;4.45;4.05;;;;;;;18.64;74.71;101294.91;5034760;28;20033;-77
2021/06/07 07:13:12;;;;;;;4.00;3.60;;;;;;;18.86;74.12;101291.97;5042603;28;20108;-77
2021/06/07 07:15:38;;;;;;;5.20;3.50;;;;;;;19.03;72.47;101298.72;5040198;28;20024;-78
2021/06/07 07:18:04;;;;;;;4.00;2.90;;;;;;;19.29;70.51;101299.53;5037121;28;20038;-78
2021/06/07 07:20:30;;;;;;;4.10;3.42;;;;;;;19.52;71.27;101297.31;5044275;28;20156;-78
2021/06/07 07:22:55;;;;;;;3.05;2.75;;;;;;;19.64;70.58;101289.00;5051024;28;20037;-78
2021/06/07 07:25:21;;;;;;;5.88;3.72;;;;;;;19.84;71.29;101286.66;5038598;28;20504;-78
2021/06/07 07:27:46;;;;;;;4.15;3.08;;;;;;;19.99;70.54;101294.53;5044312;28;20033;-78
2021/06/07 07:30:14;;;;;;;3.25;2.85;;;;;;;20.26;69.71;101298.88;5041072;28;20037;-78
2021/06/07 07:32:40;;;;;;;4.15;2.92;;;;;;;20.43;68.05;101286.66;5025929;28;20474;-78
2021/06/07 07:35:06;;;;;;;3.35;2.33;;;;;;;20.64;67.26;101286.69;5032021;28;20028;-78
2021/06/07 07:37:33;;;;;;;3.85;2.83;;;;;;;20.80;67.57;101288.88;5023957;28;20104;-78
2021/06/07 07:39:59;;;;;;;4.50;2.47;;;;;;;20.98;67.39;101291.22;5019465;28;20121;-78
2021/06/07 07:42:24;;;;;;;4.50;2.53;;;;;;;21.17;66.42;101287.03;5037483;28;20033;-78
2021/06/07 07:44:50;;;;;;;2.38;1.63;;;;;;;21.38;64.96;101281.41;5041998;28;20095;-77
2021/06/07 07:47:18;;;;;;;4.03;2.47;;;;;;;21.47;65.81;101284.94;5046607;28;20094;-77
2021/06/07 07:49:44;;;;;;;3.72;2.25;;;;;;;21.67;64.55;101282.38;5040367;28;20115;-78
2021/06/07 07:52:10;;;;;;;2.88;1.52;;;;;;;21.92;63.34;101284.06;5045360;28;20468;-77
2021/06/07 07:54:36;;;;;;;4.05;2.65;;;;;;;21.97;64.87;101286.66;5039454;28;20040;-77
2021/06/07 07:57:01;;;;;;;3.00;2.33;;;;;;;22.03;64.55;101284.41;5033181;28;20612;-78
2021/06/07 07:59:27;;;;;;;5.28;2.30;;;;;;;22.18;63.94;101285.78;5040484;28;20080;-78
2021/06/07 08:01:52;;;;;;;2.58;1.92;;;;;;;22.33;62.47;101289.88;5039603;28;20029;-77
2021/06/07 08:04:18;;;;;;;2.08;1.63;;;;;;;22.37;62.45;101283.16;5046766;28;20026;-78
2021/06/07 08:06:44;;;;;;;3.22;2.13;;;;;;;22.28;62.31;101282.44;5042757;28;20080;-77
2021/06/07 08:09:12;;;;;;;3.20;1.95;;;;;;;22.37;61.64;101283.16;5040433;28;20033;-78
2021/06/07 08:11:38;;;;;;;1.52;1.40;;;;;;;22.70;61.46;101279.28;5041741;28;20029;-78
2021/06/07 08:14:04;;;;;;;2.97;1.60;;;;;;;22.68;61.02;101281.69;5040198;28;20095;-78
2021/06/07 08:16:29;;;;;;;1.30;1.17;;;;;;;22.91;60.57;101277.09;5038365;28;20068;-78
2021/06/07 08:18:55;;;;;;;3.22;2.05;;;;;;;22.95;60.32;101275.22;5028809;28;20473;-78
2021/06/07 08:21:20;;;;;;;2.75;1.50;;;;;;;23.12;60.83;101273.25;5025235;28;20485;-78
2021/06/07 08:23:46;;;;;;;3.00;1.48;;;;;;;23.19;59.53;101273.47;5037232;28;20041;-78
2021/06/07 08:26:11;;;;;;;1.85;1.10;;;;;;;23.51;59.43;101279.19;5039954;28;20037;-78
2021/06/07 08:28:37;;;;;;;2.40;1.70;;;;;;;23.51;58.88;101274.34;5038020;28;20095;-77
2021/06/07 08:31:02;;;;;;;2.67;1.70;;;;;;;23.70;59.13;101275.66;5030873;28;20076;-77
2021/06/07 08:33:29;;;;;;;1.63;1.38;;;;;;;23.74;58.36;101277.44;5039866;28;20476;-77
2021/06/07 08:35:55;;;;;;;1.98;1.38;;;;;;;24.06;58.10;101277.41;5038064;28;20029;-77
2021/06/07 08:38:20;;;;;;;2.30;0.90;;;;;;;24.22;57.62;101275.38;5042385;28;20560;-78
2021/06/07 08:40:50;;;;;;;2.38;1.30;;;;;;;24.33;56.71;101280.50;5041630;28;20060;-77
2021/06/07 08:43:16;;;;;;;3.00;1.30;;;;;;;24.34;56.79;101270.78;5026054;28;20030;-77
2021/06/07 08:45:41;;;;;;;2.20;1.15;;;;;;;24.56;56.31;101277.81;5036290;28;20040;-77
2021/06/07 08:48:07;;;;;;;2.20;1.00;;;;;;;24.67;56.04;101279.69;5028323;28;20036;-77
2021/06/07 08:50:33;;;;;;;2.22;1.10;;;;;;;24.64;55.65;101274.75;5051394;28;20053;-77
2021/06/07 08:52:58;;;;;;;3.97;1.20;;;;;;;24.91;56.14;101272.91;5042291;28;20029;-77
2021/06/07 08:55:27;;;;;;;1.88;1.10;;;;;;;25.13;55.65;101276.16;5024665;28;20091;-78
2021/06/07 08:57:54;;;;;;;2.35;0.88;;;;;;;25.29;55.48;101276.94;5034507;28;20386;-77
2021/06/07 09:00:22;;;;;;;1.85;0.88;;;;;;;25.39;54.49;101275.50;5035179;28;20037;-78
2021/06/07 09:02:48;;;;;;;3.35;1.30;;;;;;;25.44;53.74;101283.72;5037617;28;20030;-76
2021/06/07 09:05:13;;;;;;;2.83;1.55;;;;;;;25.48;53.24;101290.28;5038720;28;20564;-78
2021/06/07 09:07:52;;;;;;;2.10;1.00;;;;;;;25.69;53.88;101283.38;5036728;28;20022;-78
2021/06/07 09:10:18;;;;;;;2.03;0.93;;;;;;;25.94;53.04;101276.13;5027815;28;20030;-78
2021/06/07 09:12:44;;;;;;;2.03;1.05;;;;;;;25.96;52.39;101276.53;5041828;28;20045;-78
2021/06/07 09:15:29;;;;;;;3.67;0.95;;;;;;;26.08;51.65;101279.19;5038227;28;20032;-78
2021/06/07 09:17:54;;;;;;;1.38;0.90;;;;;;;26.25;51.03;101277.03;5047346;28;20037;-78
2021/06/07 09:20:21;;;;;;;1.88;1.10;;;;;;;26.07;50.50;101280.38;5040506;28;20086;-78
2021/06/07 09:22:53;;;;;;;1.75;0.73;;;;;;;26.27;50.68;101271.75;5047772;28;20521;-78
2021/06/07 09:25:19;;;;;;;;;;;;;;;26.31;51.19;101281.19;5038548;28;20463;-78
2021/06/07 09:28:06;;;;;;;1.65;1.00;;;;;;;26.33;51.86;101273.06;5024086;28;19920;-78
2021/06/07 09:30:35;;;;;;;1.25;0.80;;;;;;;26.31;49.77;101266.94;5021539;28;20025;-77
2021/06/07 09:33:21;;;;;;;1.67;0.88;;;;;;;26.50;50.16;101266.84;5047395;28;20033;-78
2021/06/07 09:36:29;;;;;;;2.67;0.70;;;;;;;26.62;49.51;101268.63;5041349;28;20089;-77
2021/06/07 09:39:07;;;;;;;2.25;0.73;;;;;;;26.74;49.68;101271.25;5033959;28;20057;-77
2021/06/07 09:41:56;;;;;;;1.95;0.90;;;;;;;26.81;48.86;101266.84;5039039;28;20504;-77
2021/06/07 09:44:34;;;;;;;4.10;1.05;;;;;;;26.74;49.29;101270.41;5034011;28;20034;-77
2021/06/07 09:47:23;;;;;;;2.88;1.08;;;;;;;26.95;48.98;101259.28;5034345;28;20385;-77
2021/06/07 09:50:03;;;;;;;2.53;1.02;;;;;;;27.10;49.50;101268.81;5036320;28;20624;-77
2021/06/07 09:52:29;;;;;;;3.15;1.00;;;;;;;27.07;48.92;101258.22;5041138;28;20029;-77
2021/06/07 09:55:17;;;;;;;1.50;0.88;;;;;;;27.33;48.37;101265.03;5035598;28;20042;-78
2021/06/07 09:57:48;;;;;;;1.60;0.70;;;;;;;27.60;49.26;101266.53;5036891;28;20029;-77
2021/06/07 10:00:33;;;;;;;1.48;0.80;;;;;;;27.85;48.97;101266.00;5038478;28;20128;-77
2021/06/07 10:03:15;;;;;;;2.85;0.80;;;;;;;28.08;49.03;101265.75;5042277;28;20056;-77
2021/06/07 10:05:41;;;;;;;;;;;;;;;28.29;48.87;101260.22;5034948;28;20069;-78
2021/06/07 10:08:07;;;;;;;3.25;0.85;;;;;;;28.53;48.64;101266.53;5046741;28;19966;-78
2021/06/07 10:10:33;;;;;;;1.13;0.70;;;;;;;28.72;48.03;101269.06;5040152;28;20362;-77
2021/06/07 10:13:09;;;;;;;1.27;0.65;;;;;;;28.96;47.67;101266.72;5038095;28;20108;-77
2021/06/07 10:15:39;;;;;;;1.63;0.80;;;;;;;29.20;45.94;101255.78;5044768;28;20032;-77
2021/06/07 10:18:07;;;;;;;1.85;0.70;;;;;;;29.40;46.44;101255.03;5041728;28;20029;-77
2021/06/07 10:22:59;;;;;;;1.58;0.60;;;;;;;29.67;44.77;101262.44;5039604;28;20025;-78
2021/06/07 10:25:25;;;;;;;1.75;0.70;;;;;;;29.72;44.50;101259.19;5045667;28;20069;-78
2021/06/07 10:27:50;;;;;;;0.90;0.50;;;;;;;29.66;44.71;101260.81;5042326;28;20033;-78
2021/06/07 10:30:23;;;;;;;1.98;0.90;;;;;;;29.48;44.46;101258.72;5020057;28;20033;-76
2021/06/07 10:32:49;;;;;;;3.22;1.50;;;;;;;29.29;45.37;101262.78;5037128;28;20113;-77
2021/06/07 10:35:37;;;;;;;2.65;2.08;;;;;;;29.03;45.57;101258.22;5036490;28;20058;-76
2021/06/07 10:38:10;;;;;;;3.53;2.10;;;;;;;28.76;45.34;101239.69;5035561;28;20030;-76
2021/06/07 10:40:39;;;;;;;;;;;;;;;28.59;45.93;101244.09;5025114;28;20481;-76
2021/06/07 10:43:06;;;;;;;3.60;1.60;;;;;;;28.52;46.10;101247.72;5058989;28;20003;-76
2021/06/07 10:45:36;;;;;;;3.65;0.98;;;;;;;28.46;45.07;101237.91;5044620;28;20029;-76
2021/06/07 10:48:02;;;;;;;1.63;1.00;;;;;;;28.45;43.58;101242.00;5028802;28;20156;-77
2021/06/07 10:50:30;;;;;;;4.00;1.83;;;;;;;28.43;45.76;101233.00;5040622;28;20065;-78
2021/06/07 10:52:58;;;;;;;4.85;1.63;;;;;;;28.47;46.17;101239.53;5021908;28;20481;-77
2021/06/07 10:55:24;;;;;;;7.10;2.20;;;;;;;28.42;46.37;101242.75;5040131;28;20044;-76
2021/06/07 10:58:06;;;;;;;3.08;1.90;;;;;;;28.46;46.82;101235.84;5041547;28;20037;-76
2021/06/07 11:00:43;;;;;;;2.38;1.40;;;;;;;28.58;46.67;101228.97;5039932;28;20034;-77
2021/06/07 11:03:25;;;;;;;1.88;1.23;;;;;;;28.67;46.07;101237.22;5039214;28;20028;-78
2021/06/07 11:05:55;;;;;;;2.50;1.50;;;;;;;28.62;46.08;101235.53;5050057;28;20038;-77
2021/06/07 11:08:31;;;;;;;2.20;1.35;;;;;;;28.67;45.71;101222.91;5047091;28;20175;-78
2021/06/07 11:11:00;;;;;;;4.18;1.63;;;;;;;28.76;45.58;101225.41;5041799;28;20108;-73
2021/06/07 11:13:30;;;;;;;2.10;1.20;;;;;;;28.83;45.94;101231.13;5039044;28;20018;-74
2021/06/07 11:16:01;;;;;;;1.88;1.20;;;;;;;29.09;45.39;101225.13;5028360;28;20029;-74
2021/06/07 11:18:30;;;;;;;3.22;0.70;;;;;;;29.31;44.82;101231.72;5007980;28;20496;-73
2021/06/07 11:21:01;;;;;;;2.13;0.90;;;;;;;29.40;43.46;101217.03;5026832;28;20029;-74
2021/06/07 11:23:37;;;;;;;2.63;0.90;;;;;;;29.41;41.35;101218.66;5024584;28;20029;-74
2021/06/07 11:26:04;;;;;;;2.75;0.70;;;;;;;29.65;42.36;101222.00;5026127;28;20113;-74
2021/06/07 11:28:42;;;;;;;1.55;0.60;;;;;;;29.75;40.76;101224.00;5032098;28;20029;-74
2021/06/07 11:31:20;;;;;;;1.60;0.70;;;;;;;29.75;41.05;101218.28;5030260;28;20112;-74